createdAt,value
2022-11-13T09:43:42.529Z,12.30
2022-11-13T09:46:21.097Z,12.51
2022-11-13T09:48:53.725Z,12.62
2022-11-13T09:51:26.144Z,12.77
2022-11-13T09:53:54.322Z,12.94
2022-11-13T09:56:30.186Z,12.95
2022-11-13T09:59:22.454Z,13.17
2022-11-13T10:01:58.632Z,13.07
2022-11-13T10:04:42.423Z,13.33
2022-11-13T10:07:25.186Z,13.36
2022-11-13T10:10:06.202Z,13.59
2022-11-13T10:12:35.664Z,13.67
2022-11-13T10:15:07.269Z,13.77
2022-11-13T10:17:39.411Z,13.73
2022-11-13T10:20:15.301Z,13.93
2022-11-13T10:22:51.487Z,13.95
2022-11-13T10:25:21.369Z,14.06
2022-11-13T10:27:55.154Z,13.88
2022-11-13T10:30:24.582Z,14.18
2022-11-13T10:32:52.674Z,14.25
2022-11-13T10:35:46.053Z,14.20
2022-11-13T10:38:22.441Z,14.37
2022-11-13T10:40:50.908Z,14.30
2022-11-13T10:43:23.440Z,14.39
2022-11-13T10:46:00.968Z,14.49
2022-11-13T10:48:32.018Z,14.50
2022-11-13T10:51:03.015Z,14.53
2022-11-13T10:53:40.275Z,14.45
2022-11-13T10:56:25.270Z,14.39
2022-11-13T10:59:11.121Z,14.65
2022-11-13T11:01:44.283Z,14.78
2022-11-13T11:04:15.416Z,14.69
2022-11-13T11:09:33.803Z,14.75
2022-11-13T11:12:24.319Z,14.78
2022-11-13T11:15:17.191Z,14.94
2022-11-13T11:17:50.586Z,14.95
2022-11-13T11:20:25.767Z,15.07
2022-11-13T11:22:59.943Z,14.84
2022-11-13T11:25:36.845Z,15.15
2022-11-13T11:28:10.748Z,14.90
2022-11-13T11:30:48.744Z,15.11
2022-11-13T11:33:24.029Z,15.22
2022-11-13T11:36:00.524Z,15.30
2022-11-13T11:38:34.067Z,15.29
2022-11-13T11:41:15.008Z,15.35
2022-11-13T11:43:46.165Z,15.40
2022-11-13T11:46:15.612Z,15.41
2022-11-13T11:48:44.861Z,15.36
2022-11-13T11:51:22.518Z,15.45
2022-11-13T11:53:59.464Z,15.35
2022-11-13T11:56:33.017Z,15.63
2022-11-13T11:59:13.418Z,15.59
2022-11-13T12:01:57.354Z,15.72
2022-11-13T12:04:43.191Z,15.62
2022-11-13T12:07:18.667Z,15.82
2022-11-13T12:09:56.700Z,15.65
2022-11-13T12:12:46.089Z,15.76
2022-11-13T12:15:23.370Z,15.86
2022-11-13T12:18:00.603Z,15.68
2022-11-13T12:20:38.032Z,15.86
2022-11-13T12:23:21.152Z,16.01
2022-11-13T12:25:52.818Z,15.95
2022-11-13T12:28:25.083Z,16.05
2022-11-13T12:31:04.562Z,16.03
2022-11-13T12:33:44.893Z,15.97
2022-11-13T12:36:16.201Z,15.99
2022-11-13T12:38:52.813Z,16.11
2022-11-13T12:41:31.869Z,16.18
2022-11-13T12:44:16.944Z,16.20
2022-11-13T12:46:45.577Z,16.18
2022-11-13T12:49:28.180Z,16.23
2022-11-13T12:51:59.676Z,16.27
2022-11-13T12:54:32.821Z,16.07
2022-11-13T12:57:09.093Z,16.30
2022-11-13T12:59:40.861Z,16.10
2022-11-13T13:02:26.441Z,16.23
2022-11-13T13:05:08.404Z,16.41
2022-11-13T13:07:56.328Z,16.47
2022-11-13T13:10:30.664Z,16.38
2022-11-13T13:13:05.319Z,16.54
2022-11-13T13:15:37.572Z,16.58
2022-11-13T13:18:09.910Z,16.36
2022-11-13T13:20:40.403Z,16.64
2022-11-13T13:23:13.450Z,16.68
2022-11-13T13:25:42.638Z,16.62
2022-11-13T13:28:24.136Z,16.65
2022-11-13T13:30:59.177Z,16.74
2022-11-13T13:33:33.616Z,16.76
2022-11-13T13:36:12.672Z,16.77
2022-11-13T13:38:52.419Z,16.79
2022-11-13T13:41:33.190Z,16.80
2022-11-13T13:44:24.191Z,16.76
2022-11-13T13:46:52.731Z,16.83
2022-11-13T13:49:23.725Z,16.78
2022-11-13T13:51:54.107Z,16.87
2022-11-13T13:54:26.220Z,16.73
2022-11-13T13:56:55.455Z,16.75
2022-11-13T13:59:33.379Z,16.91
2022-11-13T14:02:03.480Z,16.91
2022-11-13T14:04:36.163Z,16.86
2022-11-13T14:07:04.803Z,16.92
2022-11-13T14:09:35.433Z,16.83
2022-11-13T14:12:09.590Z,16.91
2022-11-13T14:14:40.606Z,16.89
2022-11-13T14:17:11.579Z,16.96
2022-11-13T14:19:39.973Z,16.96
2022-11-13T14:22:13.891Z,16.77
2022-11-13T14:24:48.693Z,16.98
2022-11-13T14:27:20.958Z,16.90
2022-11-13T14:29:51.140Z,16.99
2022-11-13T14:32:22.556Z,16.76
2022-11-13T14:34:53.015Z,16.69
2022-11-13T14:37:28.782Z,16.80
2022-11-13T14:40:00.674Z,16.98
2022-11-13T14:42:37.147Z,16.91
2022-11-13T14:45:16.444Z,16.93
2022-11-13T14:47:45.382Z,16.90
2022-11-13T14:50:24.836Z,16.95
2022-11-13T14:53:01.746Z,16.94
2022-11-13T14:55:33.538Z,16.89
2022-11-13T14:58:01.327Z,16.71
2022-11-13T15:00:34.340Z,16.83
2022-11-13T15:03:04.366Z,16.75
2022-11-13T15:05:33.445Z,16.78
2022-11-13T15:08:01.692Z,16.73
2022-11-13T15:10:32.835Z,16.57
2022-11-13T15:13:00.707Z,16.56
2022-11-13T15:15:30.936Z,16.58
2022-11-13T15:17:59.300Z,16.38
2022-11-13T15:20:29.219Z,16.48
2022-11-13T15:22:59.722Z,16.37
2022-11-13T15:25:28.358Z,16.25
2022-11-13T15:27:57.655Z,16.31
2022-11-13T15:30:25.919Z,16.23
2022-11-13T15:32:54.827Z,16.01
2022-11-13T15:35:23.322Z,15.88
2022-11-13T15:37:51.382Z,15.92
2022-11-13T15:40:19.380Z,15.95
2022-11-13T15:42:47.582Z,15.81
2022-11-13T15:45:17.928Z,15.94
2022-11-13T15:47:45.808Z,15.74
2022-11-13T15:50:15.878Z,15.80
2022-11-13T15:52:47.043Z,15.61
2022-11-13T15:55:22.490Z,15.69
2022-11-13T15:57:50.282Z,15.74
2022-11-13T16:00:25.487Z,15.64
2022-11-13T16:02:55.746Z,15.57
2022-11-13T16:05:25.944Z,15.55
2022-11-13T16:07:54.405Z,15.38
2022-11-13T16:10:26.359Z,15.40
2022-11-13T16:12:57.092Z,15.07
2022-11-13T16:15:26.665Z,15.26
2022-11-13T16:17:57.643Z,15.14
2022-11-13T16:20:28.925Z,15.05
2022-11-13T16:22:57.346Z,15.11
2022-11-13T16:25:25.410Z,14.97
2022-11-13T16:28:11.964Z,14.93
2022-11-13T16:30:44.902Z,15.02
2022-11-13T16:33:17.243Z,14.66
2022-11-13T16:36:23.719Z,14.62
2022-11-13T16:39:00.882Z,14.79
2022-11-13T16:41:39.613Z,14.68
2022-11-13T16:47:36.523Z,14.37
2022-11-13T16:53:20.571Z,14.36
2022-11-13T16:59:24.194Z,14.13
2022-11-13T17:05:14.544Z,14.33
2022-11-13T17:07:43.192Z,14.07
2022-11-13T17:48:52.764Z,13.30
2022-11-13T18:18:57.454Z,13.13
2022-11-13T18:21:29.039Z,12.98
2022-11-13T18:23:58.622Z,12.88
2022-11-13T18:26:28.396Z,12.76
2022-11-13T18:28:56.855Z,12.88
2022-11-13T18:31:25.215Z,12.92
2022-11-13T18:33:53.624Z,12.69
2022-11-13T18:36:23.178Z,12.66
2022-11-13T18:38:51.402Z,12.64
2022-11-13T18:41:21.803Z,12.61
2022-11-13T18:43:51.876Z,12.57
2022-11-13T18:46:24.028Z,12.62
2022-11-13T18:48:52.827Z,12.72
2022-11-13T18:51:24.803Z,12.65
2022-11-13T18:54:04.326Z,12.57
2022-11-13T18:56:54.059Z,12.54
2022-11-13T18:59:26.424Z,12.57
2022-11-13T19:02:07.944Z,12.68
2022-11-13T19:04:37.984Z,12.31
2022-11-13T19:07:08.903Z,12.34
2022-11-13T19:09:36.997Z,12.30
2022-11-13T19:12:10.056Z,12.14
2022-11-13T19:14:53.948Z,12.16
2022-11-13T19:17:23.005Z,12.12
2022-11-13T19:19:51.776Z,12.06
2022-11-13T19:22:23.583Z,12.07
2022-11-13T19:24:54.854Z,12.02
2022-11-13T19:27:23.881Z,11.96
2022-11-13T19:29:56.085Z,11.95
2022-11-13T19:32:26.612Z,12.06
2022-11-13T19:34:56.740Z,12.24
2022-11-13T19:37:27.399Z,11.91
